Time;durP1;ratioP1;P1;durP2;ratioP2;P2;SDS_P1;SDS_P2;PMS_P1;PMS_P2;Temp;Humidity;BMP_temperature;BMP_pressure;BME280_temperature;BME280_humidity;BME280_pressure;Samples;Min_cycle;Max_cycle;Signal;HPM_P1;HPM_P2
2022/02/21 00:00:00;;;;;;;3.60;1.30;;;;;;;-145.69;74.89;71346.69;5095608;28;20206;-76
2022/02/21 00:02:26;;;;;;;5.63;1.00;;;;;;;-145.69;75.97;71338.72;5092515;28;20268;-76
2022/02/21 00:04:53;;;;;;;4.37;1.17;;;;;;;-145.69;75.23;71326.78;5075312;28;20202;-77
2022/02/21 00:07:19;;;;;;;7.53;1.20;;;;;;;-145.69;75.56;71312.84;5074940;28;20751;-77
2022/02/21 00:09:46;;;;;;;8.73;1.23;;;;;;;-145.69;75.05;71304.91;5072441;28;20252;-77
2022/02/21 00:12:14;;;;;;;2.00;0.90;;;;;;;-145.69;74.63;71302.91;5074042;28;20210;-76
2022/02/21 00:14:41;;;;;;;5.37;1.03;;;;;;;-145.69;74.01;71273.06;5095087;28;20698;-77
2022/02/21 00:17:09;;;;;;;2.80;1.00;;;;;;;-145.69;72.47;71273.06;5095204;28;20656;-77
2022/02/21 00:19:35;;;;;;;8.80;1.30;;;;;;;-145.69;73.63;71281.00;5090860;28;20230;-78
2022/02/21 00:22:02;;;;;;;11.30;1.70;;;;;;;-145.69;73.50;71263.09;5072635;28;20217;-76
2022/02/21 00:24:28;;;;;;;2.73;0.93;;;;;;;-145.69;74.36;71283.00;5074962;28;20202;-77
2022/02/21 00:26:55;;;;;;;7.20;1.20;;;;;;;-145.69;73.27;71265.09;5073406;28;20571;-76
2022/02/21 00:29:21;;;;;;;8.93;1.10;;;;;;;-145.69;72.93;71259.13;5074715;28;20202;-77
2022/02/21 00:31:48;;;;;;;9.50;1.30;;;;;;;-145.69;74.13;71251.16;5087718;28;20194;-77
2022/02/21 00:34:16;;;;;;;5.47;1.07;;;;;;;-145.69;73.62;71259.13;5094679;28;20202;-77
2022/02/21 00:36:42;;;;;;;7.07;1.17;;;;;;;-145.69;73.37;71263.09;5094879;28;20201;-76
2022/02/21 00:39:09;;;;;;;4.40;1.13;;;;;;;-145.69;72.48;71231.28;5094836;28;20233;-76
2022/02/21 00:41:35;;;;;;;4.57;1.57;;;;;;;-145.69;74.19;71239.22;5084630;28;20198;-78
2022/02/21 00:44:01;;;;;;;5.70;1.57;;;;;;;-145.69;73.92;71231.28;5073775;28;20210;-77
2022/02/21 00:46:28;;;;;;;6.93;2.13;;;;;;;-145.69;73.15;71227.28;5074368;28;20676;-76
2022/02/21 00:48:54;;;;;;;7.90;1.43;;;;;;;-145.69;72.25;71219.34;5074487;28;20202;-76
2022/02/21 00:51:22;;;;;;;4.73;1.00;;;;;;;-145.69;73.13;71211.38;5080409;28;20194;-77
2022/02/21 00:53:49;;;;;;;5.17;0.90;;;;;;;-145.69;72.41;71205.41;5093802;28;20541;-77
2022/02/21 00:56:15;;;;;;;2.13;0.90;;;;;;;-145.69;72.66;71203.41;5094154;28;20194;-77
2022/02/21 00:58:42;;;;;;;4.43;1.40;;;;;;;-145.69;72.76;71195.47;5094261;28;20233;-77
2022/02/21 01:01:08;;;;;;;5.23;1.57;;;;;;;-145.69;72.31;71205.41;5089559;28;20194;-74
2022/02/21 01:03:35;;;;;;;4.07;1.10;;;;;;;-145.69;72.45;71189.47;5074069;28;20577;-75
2022/02/21 01:06:01;;;;;;;2.17;0.90;;;;;;;-145.69;73.01;71191.47;5074196;28;20203;-75
2022/02/21 01:08:29;;;;;;;7.30;1.30;;;;;;;-145.69;73.33;71189.47;5073838;28;20636;-77
2022/02/21 01:10:55;;;;;;;5.23;1.07;;;;;;;-145.69;75.89;71215.34;5083183;28;20202;-77
2022/02/21 01:13:22;;;;;;;6.00;1.37;;;;;;;-145.69;75.82;71207.38;5093992;28;20607;-77
2022/02/21 01:15:49;;;;;;;4.33;1.00;;;;;;;-145.69;77.45;71221.31;5094171;28;20198;-77
2022/02/21 01:18:15;;;;;;;7.47;1.07;;;;;;;-145.69;77.27;71213.38;5093439;28;20684;-77
2022/02/21 01:20:42;;;;;;;2.13;0.80;;;;;;;-145.69;78.33;71221.31;5087734;28;20203;-76
2022/02/21 01:23:08;;;;;;;4.67;1.00;;;;;;;-145.69;79.58;71225.31;5073841;28;20249;-77
2022/02/21 01:25:36;;;;;;;5.00;1.07;;;;;;;-145.69;79.78;71219.34;5073521;28;20194;-76
2022/02/21 01:28:03;;;;;;;2.03;1.10;;;;;;;-145.69;81.13;71225.31;5073315;28;20658;-77
2022/02/21 01:30:29;;;;;;;5.77;1.57;;;;;;;-145.69;82.97;71261.13;5077385;28;20190;-78
2022/02/21 01:32:56;;;;;;;3.50;1.00;;;;;;;-145.69;83.38;71243.22;5094135;28;20220;-78
2022/02/21 01:35:22;;;;;;;3.30;1.10;;;;;;;-145.69;82.84;71235.25;5093505;28;20214;-77
2022/02/21 01:37:49;;;;;;;2.43;1.00;;;;;;;-145.69;83.01;71247.19;5093837;28;20209;-75
2022/02/21 01:40:16;;;;;;;5.27;1.33;;;;;;;-145.69;84.31;71255.16;5085581;28;20632;-77
2022/02/21 01:42:44;;;;;;;4.50;1.00;;;;;;;-145.69;86.51;71239.22;5073550;28;20195;-77
2022/02/21 01:45:11;;;;;;;3.87;1.67;;;;;;;-145.69;86.90;71263.09;5073285;28;20692;-76
2022/02/21 01:47:37;;;;;;;3.90;1.17;;;;;;;-145.69;90.59;71277.03;5073518;28;20206;-76
2022/02/21 01:50:04;;;;;;;5.87;1.27;;;;;;;-145.69;91.35;71294.94;5074091;28;20676;-76
2022/02/21 01:52:32;;;;;;;4.53;1.00;;;;;;;-145.69;92.59;71283.00;5073377;28;20226;-78
2022/02/21 01:54:58;;;;;;;3.07;0.90;;;;;;;-145.69;93.28;71290.97;5072310;28;20228;-78
2022/02/21 01:57:26;;;;;;;3.83;1.10;;;;;;;-145.69;95.01;71294.94;5073110;28;20207;-76
2022/02/21 01:59:54;;;;;;;4.37;0.80;;;;;;;-145.69;93.53;71302.91;5077406;28;20710;-75
2022/02/21 02:02:21;;;;;;;5.83;0.90;;;;;;;-145.69;93.73;71283.00;5093367;28;20205;-76
2022/02/21 02:04:47;;;;;;;6.33;0.97;;;;;;;-145.69;95.28;71279.03;5093148;28;20198;-77
2022/02/21 02:07:15;;;;;;;5.67;1.20;;;;;;;-145.69;95.73;71290.97;5092733;28;20230;-77
2022/02/21 02:09:41;;;;;;;2.60;1.10;;;;;;;-145.69;95.68;71259.13;5090585;28;20209;-77
2022/02/21 02:12:10;;;;;;;2.70;1.00;;;;;;;-145.69;94.58;71273.06;5072771;28;20195;-78
2022/02/21 02:14:38;;;;;;;3.60;0.90;;;;;;;-145.69;95.34;71277.03;5072730;28;20205;-77
2022/02/21 02:17:09;;;;;;;4.37;1.20;;;;;;;-145.69;96.24;71261.13;5072967;28;20198;-77
2022/02/21 02:19:36;;;;;;;2.97;1.27;;;;;;;-145.69;99.30;71294.94;5073652;28;20257;-78
2022/02/21 02:22:12;;;;;;;6.77;0.90;;;;;;;-145.69;95.69;71255.16;5088188;28;20194;-77
2022/02/21 02:24:39;;;;;;;3.17;0.80;;;;;;;-145.69;97.10;71253.16;5052760;28;20206;-77
2022/02/21 02:27:08;;;;;;;2.27;0.70;;;;;;;-145.69;94.56;71235.25;5052571;28;20199;-77
2022/02/21 02:29:35;;;;;;;2.30;0.80;;;;;;;-145.69;94.86;71215.34;5066067;28;20194;-77
2022/02/21 02:32:02;;;;;;;2.00;0.83;;;;;;;-145.69;95.25;71241.22;5090965;28;20194;-77
2022/02/21 02:34:28;;;;;;;1.47;0.63;;;;;;;-145.69;92.69;71201.41;5092417;28;20206;-77
2022/02/21 02:36:55;;;;;;;2.77;0.80;;;;;;;-145.69;93.25;71191.47;5092797;28;20205;-77
2022/02/21 02:39:24;;;;;;;1.67;0.70;;;;;;;-145.69;93.46;71189.47;5087909;28;20227;-77
2022/02/21 02:41:51;;;;;;;0.90;0.60;;;;;;;-145.69;93.18;71175.56;5072716;28;20205;-77
2022/02/21 02:44:18;;;;;;;1.90;0.63;;;;;;;-145.69;93.16;71171.56;5072549;28;20198;-77
2022/02/21 02:46:45;;;;;;;3.80;0.80;;;;;;;-145.69;92.78;71169.59;5072457;28;20248;-77
2022/02/21 02:49:11;;;;;;;3.17;1.27;;;;;;;-145.69;92.10;71139.75;5072283;28;20574;-77
2022/02/21 02:51:38;;;;;;;1.73;0.70;;;;;;;-145.69;92.16;71147.69;5080299;28;20194;-77
2022/02/21 02:54:06;;;;;;;2.23;0.60;;;;;;;-145.69;91.23;71147.69;5092446;28;20202;-75
2022/02/21 02:56:35;;;;;;;0.87;0.60;;;;;;;-145.69;91.52;71159.63;5092457;28;20719;-75
2022/02/21 02:59:01;;;;;;;4.10;0.80;;;;;;;-145.69;91.91;71141.72;5092023;28;20225;-77
2022/02/21 03:01:28;;;;;;;2.77;0.70;;;;;;;-145.69;90.25;71139.75;5092273;28;20210;-76
2022/02/21 03:03:54;;;;;;;2.50;0.83;;;;;;;-145.69;90.00;71111.88;5084803;28;20248;-75
2022/02/21 03:06:21;;;;;;;1.27;0.50;;;;;;;-145.69;89.06;71123.81;5072155;28;20191;-75
2022/02/21 03:08:47;;;;;;;8.90;1.10;;;;;;;-145.69;89.85;71111.88;5075701;28;20239;-76
2022/02/21 03:11:14;;;;;;;2.80;0.80;;;;;;;-145.69;89.53;71115.88;5076146;28;20210;-76
2022/02/21 03:13:42;;;;;;;2.57;0.73;;;;;;;-145.69;90.35;71119.84;5081316;28;20279;-75
2022/02/21 03:16:08;;;;;;;0.80;0.60;;;;;;;-145.69;89.16;71107.91;5095752;28;20197;-76
2022/02/21 03:18:35;;;;;;;1.63;0.50;;;;;;;-145.69;90.11;71111.88;5096331;28;20197;-77
2022/02/21 03:21:01;;;;;;;2.60;0.67;;;;;;;-145.69;90.47;71121.84;5096278;28;20659;-76
2022/02/21 03:23:28;;;;;;;1.40;0.60;;;;;;;-145.69;91.18;71107.91;5092690;28;20186;-77
2022/02/21 03:25:54;;;;;;;0.97;0.60;;;;;;;-145.69;92.49;71095.97;5075937;28;20202;-77
2022/02/21 03:28:21;;;;;;;2.60;0.70;;;;;;;-145.69;92.46;71097.97;5075546;28;20206;-77
2022/02/21 03:30:49;;;;;;;4.00;0.70;;;;;;;-145.69;93.81;71099.94;5075213;28;20225;-77
2022/02/21 03:33:15;;;;;;;1.43;0.60;;;;;;;-145.69;95.35;71107.91;5076109;28;20203;-76
2022/02/21 03:35:42;;;;;;;1.23;0.60;;;;;;;-145.69;93.17;71103.94;5095777;28;20692;-77
2022/02/21 03:38:08;;;;;;;2.23;0.60;;;;;;;-145.69;93.65;71107.91;5095638;28;20194;-77
2022/02/21 03:40:35;;;;;;;1.63;0.50;;;;;;;-145.69;92.05;71072.09;5095712;28;20233;-78
2022/02/21 03:43:01;;;;;;;1.10;0.60;;;;;;;-145.69;91.06;71086.03;5095626;28;20209;-77
2022/02/21 03:45:28;;;;;;;0.80;0.50;;;;;;;-145.69;92.46;71092.00;5095717;28;20206;-76
2022/02/21 03:47:56;;;;;;;1.97;0.60;;;;;;;-145.69;91.37;71064.13;5094969;28;20210;-78
2022/02/21 03:50:22;;;;;;;1.63;0.80;;;;;;;-145.69;89.26;71052.19;5095750;28;20205;-76
2022/02/21 03:52:49;;;;;;;0.40;0.33;;;;;;;-145.69;88.86;71034.28;5095237;28;20206;-76
2022/02/21 03:55:16;;;;;;;1.13;0.70;;;;;;;-145.69;88.70;71040.25;5095597;28;20209;-76
2022/02/21 03:57:43;;;;;;;10.03;0.83;;;;;;;-145.69;88.15;71036.28;5092154;28;20214;-76
2022/02/21 04:00:11;;;;;;;0.40;0.40;;;;;;;-145.69;89.53;71050.22;5075063;28;20234;-77
2022/02/21 04:02:38;;;;;;;0.40;0.40;;;;;;;-145.69;89.75;71044.22;5074805;28;20202;-77
2022/02/21 04:05:07;;;;;;;0.40;0.40;;;;;;;-145.69;89.67;71038.25;5074980;28;20194;-77
2022/02/21 04:07:34;;;;;;;2.60;0.60;;;;;;;-145.69;90.82;71040.25;5076611;28;20558;-74
2022/02/21 04:10:00;;;;;;;0.47;0.40;;;;;;;-145.69;93.41;71064.13;5095212;28;20248;-76
2022/02/21 04:12:28;;;;;;;0.55;0.43;;;;;;;-145.69;92.80;71074.09;5094096;28;20456;-76
2022/02/21 04:14:54;;;;;;;0.67;0.50;;;;;;;-145.69;93.00;71093.97;5095351;28;20198;-76
2022/02/21 04:17:21;;;;;;;0.83;0.60;;;;;;;-145.69;95.42;71127.81;5094738;28;20197;-77
2022/02/21 04:19:47;;;;;;;0.60;0.50;;;;;;;-145.69;98.76;71163.63;5075255;28;20230;-77
2022/02/21 04:22:15;;;;;;;0.53;0.30;;;;;;;-145.69;100.00;71183.50;5073897;28;20469;-77
2022/02/21 04:24:42;;;;;;;0.40;0.40;;;;;;;-145.69;99.57;71318.81;5074715;28;20210;-77
2022/02/21 04:27:09;;;;;;;0.30;0.30;;;;;;;-145.69;100.00;71720.78;5074688;28;20203;-75
2022/02/21 04:29:38;;;;;;;1.17;0.50;;;;;;;-145.69;100.00;71788.44;5076656;28;20199;-75
2022/02/21 04:32:07;;;;;;;0.33;0.33;;;;;;;-145.69;100.00;71953.63;5094829;28;20677;-75
2022/02/21 04:34:33;;;;;;;0.40;0.40;;;;;;;-145.69;100.00;72007.34;5093767;28;20247;-78
2022/02/21 04:37:00;;;;;;;0.40;0.40;;;;;;;-145.69;100.00;72035.22;5094684;28;20259;-77
2022/02/21 04:39:28;;;;;;;0.40;0.40;;;;;;;-145.69;100.00;72049.16;5094310;28;20226;-76
2022/02/21 04:41:54;;;;;;;0.33;0.33;;;;;;;-145.69;100.00;72059.09;5087926;28;20199;-75
2022/02/21 04:44:21;;;;;;;0.40;0.40;;;;;;;-145.69;100.00;72079.00;5074328;28;20205;-76
2022/02/21 04:46:48;;;;;;;0.77;0.50;;;;;;;-145.69;100.00;72086.97;5074219;28;20891;-76
2022/02/21 04:49:15;;;;;;;0.40;0.40;;;;;;;-145.69;100.00;72082.97;5074311;28;20198;-77
2022/02/21 04:51:42;;;;;;;0.50;0.50;;;;;;;-145.69;100.00;72126.78;5073958;28;20206;-77
2022/02/21 04:54:08;;;;;;;0.50;0.50;;;;;;;-145.69;100.00;72146.69;5082866;28;20695;-76
2022/02/21 04:56:36;;;;;;;0.63;0.63;;;;;;;-145.69;100.00;72154.63;5093633;28;20240;-77
2022/02/21 04:59:03;;;;;;;0.73;0.60;;;;;;;-145.69;100.00;72180.50;5094007;28;20665;-79
2022/02/21 05:01:29;;;;;;;1.33;0.60;;;;;;;-145.69;100.00;72170.56;5094130;28;20534;-77
2022/02/21 05:03:56;;;;;;;1.00;0.57;;;;;;;-145.69;100.00;72180.50;5094217;28;20194;-78
2022/02/21 05:06:23;;;;;;;2.60;0.90;;;;;;;-145.69;100.00;72182.50;5082521;28;20195;-77
2022/02/21 05:08:49;;;;;;;4.27;1.00;;;;;;;-145.69;100.00;72182.50;5073686;28;20233;-77
2022/02/21 05:11:16;;;;;;;1.37;0.83;;;;;;;-145.69;100.00;72180.50;5076550;28;20201;-77
2022/02/21 05:13:43;;;;;;;1.70;0.77;;;;;;;-145.69;100.00;72174.53;5073478;28;20237;-76
2022/02/21 05:16:10;;;;;;;2.57;0.80;;;;;;;-145.69;100.00;72178.53;5074002;28;20199;-78
2022/02/21 05:18:36;;;;;;;7.23;1.60;;;;;;;-145.69;100.00;72150.66;5086187;28;20201;-78
2022/02/21 05:21:03;;;;;;;6.43;1.13;;;;;;;-145.69;100.00;72152.66;5093631;28;20696;-78
2022/02/21 05:23:29;;;;;;;3.40;0.90;;;;;;;-145.69;100.00;72132.75;5094056;28;20197;-77
2022/02/21 05:25:56;;;;;;;6.03;1.27;;;;;;;-145.69;100.00;72150.66;5093956;28;20614;-77
2022/02/21 05:28:22;;;;;;;4.67;0.97;;;;;;;-145.69;100.00;72174.53;5093883;28;20292;-78
2022/02/21 05:30:50;;;;;;;7.33;1.07;;;;;;;-145.69;100.00;72170.56;5076248;28;20199;-78
2022/02/21 05:33:16;;;;;;;5.37;1.07;;;;;;;-145.69;100.00;72148.66;5073087;28;20666;-77
2022/02/21 05:35:43;;;;;;;2.47;0.90;;;;;;;-145.69;100.00;72152.66;5072839;28;20210;-77
2022/02/21 05:38:10;;;;;;;3.67;0.80;;;;;;;-145.69;100.00;72114.81;5073429;28;20198;-79
2022/02/21 05:40:36;;;;;;;2.13;0.97;;;;;;;-145.69;100.00;72098.91;5073118;28;20234;-78
2022/02/21 05:43:02;;;;;;;2.27;0.67;;;;;;;-145.69;100.00;72106.88;5093673;28;20599;-77
2022/02/21 05:45:29;;;;;;;3.33;1.30;;;;;;;-145.69;100.00;72126.78;5093102;28;20194;-79
2022/02/21 05:47:57;;;;;;;4.67;1.10;;;;;;;-145.69;100.00;72122.78;5093341;28;20595;-78
2022/02/21 05:50:23;;;;;;;2.20;1.30;;;;;;;-145.69;100.00;72140.69;5091323;28;20194;-77
2022/02/21 05:52:50;;;;;;;2.30;1.10;;;;;;;-145.69;100.00;72142.69;5093446;28;20206;-77
2022/02/21 05:55:16;;;;;;;3.50;1.10;;;;;;;-145.69;100.00;72130.75;5093449;28;20206;-78
2022/02/21 05:57:45;;;;;;;6.43;1.30;;;;;;;-145.69;100.00;72132.75;5093455;28;20209;-77
2022/02/21 06:00:13;;;;;;;3.17;1.67;;;;;;;-145.69;100.00;72126.78;5083959;28;20232;-77
2022/02/21 06:02:40;;;;;;;4.13;1.50;;;;;;;-145.69;100.00;72136.72;5073063;28;20203;-77
2022/02/21 06:05:08;;;;;;;4.90;1.33;;;;;;;-145.69;100.00;72122.78;5073318;28;20628;-78
2022/02/21 06:07:35;;;;;;;5.40;1.37;;;;;;;-145.69;100.00;72130.75;5072910;28;20229;-78
2022/02/21 06:10:01;;;;;;;4.87;1.30;;;;;;;-145.69;100.00;72110.84;5073170;28;20206;-77
2022/02/21 06:12:28;;;;;;;3.07;1.03;;;;;;;-145.69;100.00;72104.88;5082668;28;20198;-78
2022/02/21 06:14:54;;;;;;;5.13;1.07;;;;;;;-145.69;100.00;72114.81;5092570;28;20222;-77
2022/02/21 06:17:21;;;;;;;7.83;1.83;;;;;;;-145.69;100.00;72130.75;5092919;28;20202;-78
2022/02/21 06:19:47;;;;;;;4.63;1.40;;;;;;;-145.69;100.00;72134.72;5089826;28;20265;-78
2022/02/21 06:22:15;;;;;;;2.83;1.20;;;;;;;-145.69;100.00;72118.81;5072220;28;20194;-77
2022/02/21 06:24:41;;;;;;;1.53;0.90;;;;;;;-145.69;100.00;72098.91;5084498;28;20197;-77
2022/02/21 06:27:08;;;;;;;3.47;1.27;;;;;;;-145.69;100.00;72094.94;5093203;28;20254;-77
2022/02/21 06:29:34;;;;;;;5.40;1.50;;;;;;;-145.69;100.00;72096.91;5093008;28;20186;-77
2022/02/21 06:32:01;;;;;;;3.63;1.17;;;;;;;-145.69;100.00;72106.88;5093214;28;20201;-76
2022/02/21 06:34:27;;;;;;;2.37;1.17;;;;;;;-145.69;100.00;72106.88;5093409;28;20205;-76
2022/02/21 06:36:54;;;;;;;10.17;1.40;;;;;;;-145.69;100.00;72116.81;5081536;28;20198;-76
2022/02/21 06:39:22;;;;;;;3.07;1.40;;;;;;;-145.69;100.00;72120.81;5072923;28;20202;-77
2022/02/21 06:41:49;;;;;;;7.90;1.63;;;;;;;-145.69;100.00;72138.72;5075014;28;20230;-78
2022/02/21 06:44:15;;;;;;;6.80;1.67;;;;;;;-145.69;100.00;72142.69;5084123;28;20194;-77
2022/02/21 06:46:42;;;;;;;8.13;1.30;;;;;;;-145.69;100.00;72146.69;5097177;28;20194;-77
2022/02/21 06:49:08;;;;;;;6.23;1.30;;;;;;;-145.69;100.00;72164.59;5097205;28;20202;-79
2022/02/21 06:51:36;;;;;;;5.37;1.40;;;;;;;-145.69;100.00;72170.56;5097340;28;20205;-77
2022/02/21 06:54:02;;;;;;;7.53;1.67;;;;;;;-145.69;100.00;72156.63;5092761;28;20542;-78
2022/02/21 06:56:31;;;;;;;9.07;1.60;;;;;;;-145.69;100.00;72160.59;5076673;28;20195;-78
2022/02/21 06:58:57;;;;;;;8.13;1.60;;;;;;;-145.69;100.00;72162.59;5076647;28;20199;-78
2022/02/21 07:01:24;;;;;;;4.30;1.70;;;;;;;-145.69;100.00;72170.56;5076495;28;20230;-78
2022/02/21 07:03:50;;;;;;;5.17;1.83;;;;;;;-145.69;100.00;72158.63;5076708;28;20199;-78
2022/02/21 07:06:17;;;;;;;12.93;2.20;;;;;;;-145.69;100.00;72146.69;5080767;28;20243;-78
2022/02/21 07:08:44;;;;;;;15.17;1.77;;;;;;;-145.69;100.00;72134.72;5096656;28;20241;-77
2022/02/21 07:11:11;;;;;;;11.43;1.50;;;;;;;-145.69;100.00;72140.69;5096883;28;20202;-78
2022/02/21 07:13:39;;;;;;;10.17;2.00;;;;;;;-145.69;100.00;72140.69;5096475;28;20292;-78
2022/02/21 07:16:06;;;;;;;7.27;1.63;;;;;;;-145.69;100.00;72142.69;5096223;28;20292;-77
2022/02/21 07:18:33;;;;;;;10.70;1.53;;;;;;;-145.69;100.00;72144.69;5091731;28;20569;-77
2022/02/21 07:21:00;;;;;;;10.10;1.70;;;;;;;-145.69;100.00;72152.66;5076290;28;20230;-78
2022/02/21 07:23:26;;;;;;;11.43;2.03;;;;;;;-145.69;100.00;72152.66;5076144;28;20209;-78
2022/02/21 07:25:52;;;;;;;8.23;1.47;;;;;;;-145.69;100.00;72160.59;5076278;28;20618;-78
2022/02/21 07:28:19;;;;;;;10.77;1.63;;;;;;;-145.69;100.00;72174.53;5075930;28;20206;-78
2022/02/21 07:30:47;;;;;;;9.03;1.70;;;;;;;-145.69;100.00;72184.50;5080998;28;20186;-77
2022/02/21 07:33:13;;;;;;;10.47;2.40;;;;;;;-145.69;100.00;72188.47;5095965;28;20190;-78
2022/02/21 07:35:40;;;;;;;8.77;1.83;;;;;;;-145.69;100.00;72194.44;5096657;28;20202;-78
2022/02/21 07:38:06;;;;;;;15.87;2.03;;;;;;;-145.69;100.00;72198.41;5096201;28;20921;-78
2022/02/21 07:40:33;;;;;;;11.27;2.20;;;;;;;-145.69;100.00;72186.47;5095639;28;20228;-79
2022/02/21 07:43:00;;;;;;;8.70;1.90;;;;;;;-145.69;100.00;72188.47;5096044;28;20201;-77
2022/02/21 07:45:27;;;;;;;4.80;1.63;;;;;;;-145.69;100.00;72190.47;5093909;28;20208;-78
2022/02/21 07:47:57;;;;;;;10.93;1.70;;;;;;;-145.69;100.00;72186.47;5075638;28;20202;-78
2022/02/21 07:50:24;;;;;;;7.83;1.70;;;;;;;-145.69;100.00;72186.47;5075609;28;20209;-77
2022/02/21 07:52:52;;;;;;;10.70;2.47;;;;;;;-145.69;100.00;72204.38;5074778;28;20211;-77
2022/02/21 07:55:19;;;;;;;19.73;3.70;;;;;;;-145.69;100.00;72194.44;5076142;28;20205;-78
2022/02/21 07:57:46;;;;;;;15.87;2.53;;;;;;;-145.69;100.00;72194.44;5075759;28;20199;-77
2022/02/21 08:00:15;;;;;;;12.87;2.33;;;;;;;-145.69;100.00;72216.34;5075543;28;20209;-77
2022/02/21 08:02:42;;;;;;;15.87;4.50;;;;;;;-145.69;100.00;72214.34;5094208;28;20220;-78
2022/02/21 08:05:10;;;;;;;22.90;2.17;;;;;;;-145.69;100.00;72192.44;5095566;28;20259;-76
2022/02/21 08:07:38;;;;;;;15.13;1.60;;;;;;;-145.69;100.00;72200.41;5095418;28;20238;-77
2022/02/21 08:10:05;;;;;;;11.27;2.30;;;;;;;-145.69;100.00;72198.41;5095763;28;20206;-77
2022/02/21 08:12:32;;;;;;;7.60;1.90;;;;;;;-145.69;100.00;72186.47;5079535;28;20198;-78
2022/02/21 08:14:58;;;;;;;11.00;1.70;;;;;;;-145.69;100.00;72194.44;5075247;28;20198;-77
2022/02/21 08:17:26;;;;;;;11.73;2.23;;;;;;;-145.69;100.00;72190.47;5075205;28;20206;-76
2022/02/21 08:19:53;;;;;;;12.53;1.80;;;;;;;-145.69;100.00;72194.44;5074988;28;20202;-77
2022/02/21 08:22:20;;;;;;;10.27;2.30;;;;;;;-145.69;100.00;72196.44;5074479;28;20226;-77
2022/02/21 08:24:47;;;;;;;17.40;2.50;;;;;;;-145.69;100.00;72192.44;5091703;28;20190;-76
2022/02/21 08:27:13;;;;;;;11.50;2.13;;;;;;;-145.69;100.00;72198.41;5094851;28;20776;-77
2022/02/21 08:29:40;;;;;;;8.00;2.00;;;;;;;-145.69;100.00;72212.34;5094988;28;20210;-76
2022/02/21 08:32:07;;;;;;;10.73;2.20;;;;;;;-145.69;100.00;72214.34;5095265;28;20201;-76
2022/02/21 08:34:34;;;;;;;10.13;2.00;;;;;;;-145.69;100.00;72182.50;5094834;28;20255;-77
2022/02/21 08:37:00;;;;;;;8.77;2.30;;;;;;;-145.69;100.00;72186.47;5054694;28;20199;-77
2022/02/21 08:39:30;;;;;;;12.83;2.17;;;;;;;-145.69;100.00;72162.59;5055323;28;20203;-77
2022/02/21 08:41:56;;;;;;;13.43;2.80;;;;;;;-145.69;100.00;72174.53;5065410;28;20227;-76
2022/02/21 08:44:25;;;;;;;16.80;2.30;;;;;;;-145.69;100.00;72182.50;5087613;28;20190;-77
2022/02/21 08:46:51;;;;;;;16.27;3.13;;;;;;;-145.69;100.00;72190.47;5094762;28;20255;-77
2022/02/21 08:49:18;;;;;;;18.47;3.00;;;;;;;-145.69;100.00;72166.56;5094951;28;20194;-78
2022/02/21 08:51:44;;;;;;;11.63;3.23;;;;;;;-145.69;100.00;72158.63;5095262;28;20351;-77
2022/02/21 08:54:11;;;;;;;11.80;2.13;;;;;;;-145.69;100.00;72150.66;5084475;28;20195;-77
2022/02/21 08:56:38;;;;;;;9.63;1.97;;;;;;;-145.69;100.00;72162.59;5074498;28;20194;-77
2022/02/21 08:59:05;;;;;;;12.87;2.07;;;;;;;-145.69;100.00;72172.53;5074699;28;20206;-77
2022/02/21 09:01:32;;;;;;;12.97;1.63;;;;;;;-145.69;100.00;72154.63;5074278;28;20585;-76
2022/02/21 09:03:58;;;;;;;12.00;1.90;;;;;;;-145.69;100.00;72162.59;5074065;28;20205;-76
2022/02/21 09:06:25;;;;;;;12.90;1.93;;;;;;;-145.69;100.00;72154.63;5087801;28;20194;-76
2022/02/21 09:08:51;;;;;;;16.53;2.00;;;;;;;-145.69;100.00;72132.75;5094122;28;20237;-77
2022/02/21 09:11:18;;;;;;;19.20;2.77;;;;;;;-145.69;100.00;72106.88;5081846;28;20195;-76
2022/02/21 09:13:45;;;;;;;18.00;2.40;;;;;;;-145.69;100.00;72120.81;5073943;28;20210;-77
2022/02/21 09:16:12;;;;;;;13.27;1.90;;;;;;;-145.69;100.00;72146.69;5074079;28;20205;-77
2022/02/21 09:18:38;;;;;;;9.63;2.50;;;;;;;-145.69;100.00;72146.69;5074086;28;20612;-76
2022/02/21 09:21:05;;;;;;;16.80;2.23;;;;;;;-145.69;100.00;72146.69;5083771;28;20248;-77
2022/02/21 09:23:31;;;;;;;13.93;2.47;;;;;;;-145.69;100.00;72146.69;5094422;28;20198;-76
2022/02/21 09:25:58;;;;;;;8.87;1.90;;;;;;;-145.69;100.00;72140.69;5094221;28;20679;-76
2022/02/21 09:28:24;;;;;;;14.30;2.73;;;;;;;-145.69;96.67;72126.78;5093989;28;20206;-76
2022/02/21 09:30:53;;;;;;;11.40;1.93;;;;;;;-145.69;100.00;72136.72;5093941;28;20282;-77
2022/02/21 09:33:19;;;;;;;13.90;2.42;;;;;;;-145.69;99.94;72148.66;5083522;28;20445;-77
2022/02/21 09:35:46;;;;;;;11.47;2.43;;;;;;;-145.69;99.17;72118.81;5073901;28;20191;-77
2022/02/21 09:38:12;;;;;;;18.40;2.27;;;;;;;-145.69;96.39;72118.81;5073727;28;20244;-76
2022/02/21 09:40:41;;;;;;;9.30;1.90;;;;;;;-145.69;97.52;72108.84;5073465;28;20199;-78
2022/02/21 09:43:08;;;;;;;11.07;2.10;;;;;;;-145.69;95.92;72082.97;5073826;28;20207;-78
2022/02/21 09:45:35;;;;;;;15.60;1.90;;;;;;;-145.69;97.13;72088.97;5082519;28;20700;-77
2022/02/21 09:48:04;;;;;;;16.87;2.20;;;;;;;-145.69;96.82;72082.97;5094081;28;20538;-77
2022/02/21 09:50:30;;;;;;;8.03;1.67;;;;;;;-145.69;98.30;72075.03;5094038;28;20205;-78
2022/02/21 09:53:01;;;;;;;10.10;2.40;;;;;;;-145.69;90.42;72061.09;5093905;28;20202;-77
2022/02/21 09:55:28;;;;;;;7.87;1.73;;;;;;;-145.69;93.12;72019.31;5093875;28;20198;-77
2022/02/21 09:57:55;;;;;;;14.53;2.30;;;;;;;-145.69;93.29;71955.63;5084018;28;20202;-77
2022/02/21 10:00:22;;;;;;;10.87;2.70;;;;;;;-145.69;90.94;71927.75;5073036;28;20281;-78
2022/02/21 10:02:50;;;;;;;17.23;2.87;;;;;;;-145.69;90.50;71909.84;5073426;28;20257;-76
2022/02/21 10:05:21;;;;;;;14.13;2.03;;;;;;;-145.69;88.23;71933.72;5073145;28;20221;-78
2022/02/21 10:07:48;;;;;;;11.90;2.00;;;;;;;-145.69;85.54;71907.84;5073255;28;20249;-78
2022/02/21 10:10:18;;;;;;;9.57;1.77;;;;;;;-145.69;88.29;71895.91;5083614;28;20205;-78
2022/02/21 10:12:50;;;;;;;11.80;1.80;;;;;;;-145.69;88.56;71953.63;5077584;28;20198;-78
2022/02/21 10:15:19;;;;;;;15.20;1.67;;;;;;;-145.69;90.20;71967.56;5073152;28;20198;-78
2022/02/21 10:17:47;;;;;;;8.03;1.80;;;;;;;-145.69;94.06;71969.53;5072318;28;20203;-78
2022/02/21 10:20:15;;;;;;;8.30;1.67;;;;;;;-145.69;91.69;71929.75;5072959;28;20742;-78
2022/02/21 10:23:00;;;;;;;9.67;1.90;;;;;;;-145.69;93.23;71937.69;5087742;28;20218;-78
2022/02/21 10:25:27;;;;;;;15.37;1.80;;;;;;;-145.69;89.97;71935.72;5092500;28;20206;-78
2022/02/21 10:27:53;;;;;;;18.43;1.93;;;;;;;-145.69;90.96;71911.84;5093094;28;20565;-77
2022/02/21 10:30:20;;;;;;;11.20;2.17;;;;;;;-145.69;91.23;71889.94;5092552;28;20568;-78
2022/02/21 10:32:49;;;;;;;15.27;1.90;;;;;;;-145.69;88.20;71895.91;5092979;28;20289;-77
2022/02/21 10:35:17;;;;;;;7.13;1.60;;;;;;;-145.69;89.47;71915.81;5072915;28;20228;-77
2022/02/21 10:37:47;;;;;;;12.07;1.73;;;;;;;-145.69;91.08;71903.88;5072801;28;20199;-77
2022/02/21 10:40:15;;;;;;;12.93;2.43;;;;;;;-145.69;89.64;71907.84;5072727;28;20252;-77
2022/02/21 10:42:44;;;;;;;18.47;2.17;;;;;;;-145.69;89.98;71917.81;5067485;28;20234;-78
2022/02/21 10:45:13;;;;;;;8.80;2.07;;;;;;;-145.69;87.56;71897.91;5072343;28;20256;-77
2022/02/21 10:47:41;;;;;;;10.97;1.83;;;;;;;-145.69;89.22;71937.69;5070960;28;20700;-77
2022/02/21 10:50:10;;;;;;;20.03;2.27;;;;;;;-145.69;89.37;71927.75;5072442;28;20649;-77
2022/02/21 10:52:39;;;;;;;9.23;2.00;;;;;;;-145.69;88.56;71887.94;5082337;28;20206;-78
2022/02/21 10:55:10;;;;;;;15.83;2.10;;;;;;;-145.69;88.99;71891.94;5093054;28;20206;-77
2022/02/21 10:57:41;;;;;;;11.60;1.90;;;;;;;-145.69;90.61;71885.97;5092508;28;20285;-77
2022/02/21 11:00:10;;;;;;;16.60;2.47;;;;;;;-145.69;91.54;71899.88;5068850;28;20722;-76
2022/02/21 11:02:39;;;;;;;13.03;1.93;;;;;;;-145.69;91.04;71923.78;5052369;28;20262;-76
2022/02/21 11:05:07;;;;;;;8.90;1.37;;;;;;;-145.69;90.07;71963.56;5070621;28;20218;-76
2022/02/21 11:07:35;;;;;;;12.93;2.30;;;;;;;-145.69;94.19;71925.75;5071332;28;20447;-76
2022/02/21 11:10:04;;;;;;;12.53;2.43;;;;;;;-145.69;87.45;71880.00;5072452;28;20194;-76